Time;durP1;ratioP1;P1;durP2;ratioP2;P2;SDS_P1;SDS_P2;PMS_P1;PMS_P2;Temp;Humidity;BMP_temperature;BMP_pressure;BME280_temperature;BME280_humidity;BME280_pressure;Samples;Min_cycle;Max_cycle;Signal;HPM_P1;HPM_P2
2021/08/26 00:06:50;;;;;;;5.97;3.20;;;12.80;87.70;;;;;;4954989;28;21588;-82
2021/08/26 00:09:17;;;;;;;5.03;3.65;;;12.80;87.90;;;;;;4954095;28;20034;-82
2021/08/26 00:11:47;;;;;;;6.82;3.70;;;12.70;87.70;;;;;;4938599;29;20027;-82
2021/08/26 00:14:13;;;;;;;7.07;3.25;;;12.70;87.40;;;;;;4939444;28;20039;-82
2021/08/26 00:16:41;;;;;;;7.80;3.92;;;12.70;87.30;;;;;;4936820;29;20031;-82
2021/08/26 00:19:11;;;;;;;5.00;3.00;;;12.60;87.20;;;;;;4956117;28;20031;-82
2021/08/26 00:21:41;;;;;;;6.75;3.25;;;12.60;87.40;;;;;;4936511;28;20035;-81
2021/08/26 00:24:12;;;;;;;6.20;3.35;;;12.60;87.40;;;;;;4952682;28;20536;-82
2021/08/26 00:26:38;;;;;;;4.88;2.88;;;12.60;87.90;;;;;;4951116;28;20049;-82
2021/08/26 00:29:05;;;;;;;8.32;3.42;;;12.60;87.90;;;;;;4941769;29;20117;-82
2021/08/26 00:31:31;;;;;;;9.55;3.10;;;12.50;87.90;;;;;;4939877;28;20162;-82
2021/08/26 00:33:56;;;;;;;7.45;3.63;;;12.50;88.10;;;;;;4953345;28;20062;-83
2021/08/26 00:36:23;;;;;;;5.55;3.17;;;12.50;87.80;;;;;;4970581;28;20031;-83
2021/08/26 00:38:48;;;;;;;7.13;3.88;;;12.50;87.90;;;;;;4935704;28;20023;-83
2021/08/26 00:41:21;;;;;;;5.90;3.20;;;12.50;88.00;;;;;;4935486;28;20038;-82
2021/08/26 00:43:47;;;;;;;6.85;3.50;;;12.50;88.30;;;;;;4937103;29;20054;-82
2021/08/26 00:46:14;;;;;;;5.22;3.20;;;12.40;88.00;;;;;;4938360;29;20035;-83
2021/08/26 00:48:49;;;;;;;5.43;3.40;;;12.20;88.30;;;;;;4967178;28;20392;-83
2021/08/26 00:51:16;;;;;;;5.72;3.58;;;12.30;88.30;;;;;;4953288;28;20106;-83
2021/08/26 00:53:42;;;;;;;7.00;3.47;;;12.20;89.40;;;;;;4951262;28;20026;-82
2021/08/26 00:56:15;;;;;;;6.85;3.35;;;12.20;89.40;;;;;;4937655;28;20104;-83
2021/08/26 00:58:50;;;;;;;5.72;3.08;;;12.20;90.10;;;;;;4940489;28;20042;-83
2021/08/26 01:01:28;;;;;;;11.10;3.53;;;12.10;89.70;;;;;;4931526;28;20392;-84
2021/08/26 01:04:38;;;;;;;7.70;3.42;;;12.10;89.60;;;;;;4935961;29;20055;-85
2021/08/26 01:07:16;;;;;;;6.05;3.40;;;12.10;88.90;;;;;;4939574;28;20383;-85
2021/08/26 01:09:43;;;;;;;;;;;11.90;88.20;;;;;;4953519;28;20027;-85
2021/08/26 01:12:21;;;;;;;6.00;3.88;;;11.90;88.10;;;;;;4960019;28;20435;-85
2021/08/26 01:14:48;;;;;;;5.20;2.90;;;11.80;88.10;;;;;;4933849;28;20126;-84
2021/08/26 01:17:21;;;;;;;6.68;3.80;;;11.70;88.80;;;;;;4935835;28;20532;-84
2021/08/26 01:19:48;;;;;;;7.55;3.75;;;11.70;89.10;;;;;;4953128;28;20082;-85
2021/08/26 01:22:18;;;;;;;7.10;3.90;;;11.70;89.60;;;;;;4936852;28;20455;-85
2021/08/26 01:24:53;;;;;;;6.43;3.83;;;11.70;89.50;;;;;;4952644;28;20044;-85
2021/08/26 01:27:20;;;;;;;5.32;3.40;;;11.80;90.00;;;;;;4952372;28;20023;-83
2021/08/26 01:29:49;;;;;;;5.68;3.45;;;11.80;90.60;;;;;;4937378;28;20500;-84
2021/08/26 01:32:23;;;;;;;7.97;3.75;;;11.80;90.40;;;;;;4934873;28;20488;-84
2021/08/26 01:34:49;;;;;;;7.07;4.25;;;11.80;90.50;;;;;;4951002;28;20039;-84
2021/08/26 01:37:20;;;;;;;6.53;4.03;;;11.80;90.90;;;;;;4936598;28;20400;-84
2021/08/26 01:39:50;;;;;;;5.85;3.63;;;11.80;90.50;;;;;;4936157;28;20444;-84
2021/08/26 01:42:18;;;;;;;6.85;4.20;;;11.80;90.50;;;;;;4949612;28;20038;-85
2021/08/26 01:44:43;;;;;;;7.57;4.28;;;11.90;90.50;;;;;;4952342;28;20027;-84
2021/08/26 01:47:18;;;;;;;9.52;4.38;;;11.90;90.70;;;;;;4965473;28;20372;-84
2021/08/26 01:49:45;;;;;;;6.78;3.70;;;11.90;90.80;;;;;;4949953;28;20031;-84
2021/08/26 01:52:14;;;;;;;10.05;4.18;;;11.90;90.90;;;;;;4959003;28;20030;-84
2021/08/26 01:54:39;;;;;;;7.60;4.20;;;11.80;91.00;;;;;;4935396;29;20039;-83
2021/08/26 01:57:05;;;;;;;10.02;4.38;;;11.80;91.10;;;;;;4954112;28;20035;-84
2021/08/26 01:59:33;;;;;;;6.07;3.50;;;11.90;91.10;;;;;;4954262;28;20439;-83
2021/08/26 02:01:58;;;;;;;6.43;3.25;;;11.90;91.10;;;;;;4933930;28;20502;-83
2021/08/26 02:04:24;;;;;;;5.18;3.85;;;11.80;91.00;;;;;;4939478;28;20027;-83
2021/08/26 02:06:50;;;;;;;6.85;3.55;;;11.90;91.00;;;;;;4952963;28;20054;-83
2021/08/26 02:09:15;;;;;;;8.23;4.25;;;11.90;91.10;;;;;;4954094;28;20110;-83
2021/08/26 02:11:41;;;;;;;8.68;4.07;;;11.80;91.10;;;;;;4954884;28;20161;-83
2021/08/26 02:14:07;;;;;;;6.93;3.88;;;11.90;91.20;;;;;;4951646;28;20039;-84
2021/08/26 02:16:33;;;;;;;7.03;4.07;;;11.90;91.20;;;;;;4939661;28;20125;-83
2021/08/26 02:18:58;;;;;;;8.80;4.63;;;11.90;91.10;;;;;;4941437;29;20078;-83
2021/08/26 02:21:27;;;;;;;7.88;4.32;;;12.00;91.00;;;;;;4952787;28;20055;-84
2021/08/26 02:23:54;;;;;;;5.95;4.35;;;12.00;91.00;;;;;;4956283;28;20695;-84
2021/08/26 02:26:20;;;;;;;8.32;4.80;;;12.00;90.70;;;;;;4932253;29;20053;-84
2021/08/26 02:28:46;;;;;;;9.30;5.28;;;12.00;90.80;;;;;;4949219;28;20114;-84
2021/08/26 02:31:11;;;;;;;8.40;4.82;;;12.00;90.70;;;;;;4946948;28;20114;-83
2021/08/26 02:33:37;;;;;;;7.57;4.40;;;12.10;90.60;;;;;;4944236;28;20031;-83
2021/08/26 02:36:03;;;;;;;7.07;3.95;;;12.00;90.70;;;;;;4945494;28;20023;-84
2021/08/26 02:38:29;;;;;;;7.55;3.97;;;12.10;90.60;;;;;;4949581;28;20046;-83
2021/08/26 02:40:54;;;;;;;8.82;4.55;;;12.10;90.60;;;;;;4936059;28;20487;-83
2021/08/26 02:43:20;;;;;;;6.97;4.55;;;12.10;90.60;;;;;;4951363;28;20457;-83
2021/08/26 02:45:49;;;;;;;6.15;4.07;;;12.00;90.60;;;;;;4959102;28;20046;-83
2021/08/26 02:48:14;;;;;;;9.20;4.78;;;12.00;90.50;;;;;;4938112;28;20078;-84
2021/08/26 02:50:40;;;;;;;10.07;4.78;;;12.00;90.50;;;;;;4938425;29;20689;-84
2021/08/26 02:53:08;;;;;;;9.40;4.13;;;12.10;90.60;;;;;;4960186;28;20090;-84
2021/08/26 02:55:34;;;;;;;;;;;12.10;90.50;;;;;;4936358;29;20030;-84
2021/08/26 02:57:59;;;;;;;10.95;5.15;;;12.10;90.60;;;;;;4955076;28;19910;-84
2021/08/26 03:00:25;;;;;;;9.40;4.97;;;12.10;90.80;;;;;;4949097;28;20030;-84
2021/08/26 03:02:51;;;;;;;8.43;5.07;;;12.10;90.60;;;;;;4961716;28;20126;-83
2021/08/26 03:05:17;;;;;;;8.43;4.93;;;12.10;90.60;;;;;;4954605;28;20558;-83
2021/08/26 03:07:42;;;;;;;10.57;5.72;;;12.10;90.50;;;;;;4958168;28;20034;-84
2021/08/26 03:10:09;;;;;;;10.50;5.22;;;12.10;90.50;;;;;;4971135;28;20027;-84
2021/08/26 03:12:34;;;;;;;8.68;5.00;;;12.10;90.60;;;;;;4951205;28;20357;-84
2021/08/26 03:15:00;;;;;;;10.27;5.15;;;12.10;90.60;;;;;;4967258;28;20035;-83
2021/08/26 03:17:26;;;;;;;11.20;5.10;;;12.10;90.50;;;;;;4940087;28;20055;-82
2021/08/26 03:19:52;;;;;;;8.73;4.68;;;12.10;90.60;;;;;;4952970;28;20126;-83
2021/08/26 03:22:17;;;;;;;10.15;5.28;;;12.10;90.50;;;;;;4941872;29;20031;-83
2021/08/26 03:24:44;;;;;;;9.18;5.53;;;12.10;90.40;;;;;;4947182;28;20034;-84
2021/08/26 03:27:09;;;;;;;12.45;4.88;;;12.10;90.40;;;;;;4937992;28;20484;-84
2021/08/26 03:29:35;;;;;;;8.45;4.68;;;12.10;90.30;;;;;;4958959;28;20019;-84
2021/08/26 03:32:01;;;;;;;10.23;5.30;;;12.10;90.40;;;;;;4956206;28;20039;-83
2021/08/26 03:34:26;;;;;;;8.90;5.40;;;12.10;90.30;;;;;;4966929;28;20027;-83
2021/08/26 03:36:52;;;;;;;9.85;5.43;;;12.10;90.20;;;;;;4950001;28;20067;-84
2021/08/26 03:39:18;;;;;;;9.93;6.45;;;12.10;90.20;;;;;;4935492;28;20545;-84
2021/08/26 03:41:43;;;;;;;9.70;5.32;;;12.10;90.20;;;;;;4952247;28;20041;-84
2021/08/26 03:44:09;;;;;;;6.25;4.63;;;12.10;90.10;;;;;;4951568;28;20061;-84
2021/08/26 03:46:34;;;;;;;9.93;5.80;;;11.90;90.20;;;;;;4948033;28;20035;-84
2021/08/26 03:49:00;;;;;;;9.13;5.25;;;12.00;90.00;;;;;;4929880;29;20034;-82
2021/08/26 03:51:25;;;;;;;10.30;5.40;;;11.90;89.80;;;;;;4936869;28;20031;-83
2021/08/26 03:53:51;;;;;;;8.10;5.47;;;11.90;90.00;;;;;;4953956;28;20031;-84
2021/08/26 03:56:17;;;;;;;9.93;5.75;;;12.00;89.90;;;;;;4936559;29;20518;-84
2021/08/26 03:58:42;;;;;;;8.82;5.35;;;11.90;90.00;;;;;;4950185;28;20039;-84
2021/08/26 04:01:08;;;;;;;10.27;5.25;;;12.00;89.90;;;;;;4932175;28;20453;-83
2021/08/26 04:03:34;;;;;;;12.40;5.78;;;11.90;89.80;;;;;;4951983;28;20543;-84
2021/08/26 04:06:00;;;;;;;9.43;6.00;;;11.90;89.80;;;;;;4934793;29;20028;-83
2021/08/26 04:08:26;;;;;;;10.43;5.55;;;11.90;90.20;;;;;;4940186;29;20030;-83
2021/08/26 04:10:52;;;;;;;12.48;5.43;;;11.80;90.40;;;;;;4956752;28;20027;-83
2021/08/26 04:13:18;;;;;;;12.23;6.25;;;11.80;90.50;;;;;;4940408;29;20511;-83
2021/08/26 04:15:43;;;;;;;11.30;6.03;;;11.80;90.50;;;;;;4951325;28;20038;-83
2021/08/26 04:18:09;;;;;;;10.52;5.57;;;11.70;90.80;;;;;;4939989;29;20032;-84
2021/08/26 04:20:36;;;;;;;8.70;5.82;;;11.80;90.80;;;;;;4931237;29;20046;-83
2021/08/26 04:23:04;;;;;;;12.15;5.63;;;11.70;90.80;;;;;;4938449;28;20118;-83
2021/08/26 04:25:30;;;;;;;11.15;5.95;;;11.70;90.90;;;;;;4954591;28;20122;-84
2021/08/26 04:27:56;;;;;;;8.07;5.68;;;11.70;91.30;;;;;;4942357;28;20063;-83
2021/08/26 04:30:21;;;;;;;10.00;6.25;;;11.70;91.20;;;;;;4956701;28;20527;-83
2021/08/26 04:32:47;;;;;;;9.40;6.10;;;11.70;91.30;;;;;;4949048;28;20032;-83
2021/08/26 04:35:13;;;;;;;7.80;5.70;;;11.80;91.10;;;;;;4940286;28;20035;-83
2021/08/26 04:37:39;;;;;;;12.13;5.78;;;11.80;91.10;;;;;;4957818;28;20387;-83
2021/08/26 04:40:05;;;;;;;11.35;5.95;;;11.90;90.90;;;;;;4944961;29;20083;-84
2021/08/26 04:42:31;;;;;;;12.88;6.15;;;11.90;90.80;;;;;;4932736;28;20083;-84
2021/08/26 04:44:56;;;;;;;10.73;5.45;;;11.90;90.80;;;;;;4955780;28;20035;-84
2021/08/26 04:47:22;;;;;;;10.18;6.20;;;11.90;91.30;;;;;;4934272;29;20030;-84
2021/08/26 04:49:48;;;;;;;9.57;5.30;;;11.90;91.00;;;;;;4952073;28;20027;-84
2021/08/26 04:52:13;;;;;;;10.95;5.43;;;11.90;90.80;;;;;;4952545;28;20031;-83
2021/08/26 04:54:39;;;;;;;13.27;6.03;;;12.00;90.90;;;;;;4938867;29;20090;-83
2021/08/26 04:57:05;;;;;;;11.10;6.30;;;12.00;90.90;;;;;;4955800;28;20074;-84
2021/08/26 04:59:31;;;;;;;12.02;6.65;;;11.90;90.90;;;;;;4937247;29;20028;-83
2021/08/26 05:01:56;;;;;;;12.05;7.05;;;12.00;90.90;;;;;;4937511;28;20035;-84
2021/08/26 05:04:25;;;;;;;10.82;6.28;;;12.00;90.70;;;;;;4957826;28;20064;-84
2021/08/26 05:06:51;;;;;;;;;;;12.00;90.70;;;;;;4957886;28;20467;-83
2021/08/26 05:09:17;;;;;;;11.23;6.32;;;12.00;90.80;;;;;;4940196;29;19911;-83
2021/08/26 05:11:43;;;;;;;10.80;6.50;;;12.00;90.90;;;;;;4952760;28;20480;-84
2021/08/26 05:14:08;;;;;;;10.20;6.97;;;12.00;90.80;;;;;;4954771;28;20027;-84
2021/08/26 05:16:34;;;;;;;10.80;6.65;;;12.00;90.80;;;;;;4948992;29;20028;-84
2021/08/26 05:18:59;;;;;;;11.13;6.47;;;12.00;90.70;;;;;;4938866;29;20488;-82
2021/08/26 05:21:25;;;;;;;12.52;6.97;;;12.00;90.70;;;;;;4938634;29;20050;-83
2021/08/26 05:23:51;;;;;;;12.18;7.05;;;12.10;90.40;;;;;;4941002;29;20078;-82
2021/08/26 05:26:16;;;;;;;9.57;6.25;;;12.10;90.50;;;;;;4938801;28;20033;-83
2021/08/26 05:28:42;;;;;;;11.05;7.00;;;12.10;90.50;;;;;;4945165;29;20593;-83
2021/08/26 05:31:09;;;;;;;12.23;6.57;;;12.10;90.60;;;;;;4935040;28;20036;-83
2021/08/26 05:33:35;;;;;;;11.27;6.25;;;12.20;90.60;;;;;;4940354;29;20102;-83
2021/08/26 05:36:01;;;;;;;13.65;6.57;;;12.20;90.60;;;;;;4945282;29;20035;-83
2021/08/26 05:38:27;;;;;;;13.45;7.22;;;12.20;90.50;;;;;;4956703;28;20050;-83
2021/08/26 05:40:53;;;;;;;13.15;6.28;;;12.20;90.70;;;;;;4959137;28;20026;-82
2021/08/26 05:43:18;;;;;;;12.88;6.88;;;12.30;90.60;;;;;;4949795;28;20038;-83
2021/08/26 05:45:44;;;;;;;11.38;6.88;;;12.30;90.40;;;;;;4951122;28;20031;-82
2021/08/26 05:48:10;;;;;;;9.43;6.40;;;12.30;90.50;;;;;;4952203;28;20023;-82
2021/08/26 05:50:36;;;;;;;12.48;7.20;;;12.30;90.40;;;;;;4933144;29;20028;-83
2021/08/26 05:53:02;;;;;;;10.90;6.75;;;12.40;90.10;;;;;;4952150;28;20122;-82
2021/08/26 05:55:27;;;;;;;10.52;6.32;;;12.40;90.00;;;;;;4960122;28;20038;-82
2021/08/26 05:57:53;;;;;;;10.68;6.10;;;12.40;89.80;;;;;;4944516;29;20034;-82
2021/08/26 06:00:19;;;;;;;12.35;6.80;;;12.50;89.80;;;;;;4941264;28;20063;-83
2021/08/26 06:02:45;;;;;;;10.00;6.68;;;12.50;89.80;;;;;;4941960;29;20122;-84
2021/08/26 06:05:11;;;;;;;11.02;6.55;;;12.50;89.80;;;;;;4938214;29;20030;-84
2021/08/26 06:07:38;;;;;;;10.40;6.38;;;12.60;90.00;;;;;;4956924;28;20023;-84
2021/08/26 06:10:08;;;;;;;12.80;6.78;;;12.60;89.90;;;;;;4960425;28;20029;-83
2021/08/26 06:12:37;;;;;;;12.85;6.32;;;12.60;89.70;;;;;;4956628;28;20020;-82
2021/08/26 06:15:03;;;;;;;10.93;6.28;;;12.60;89.20;;;;;;4939439;28;20038;-83
2021/08/26 06:17:29;;;;;;;10.77;6.57;;;12.70;89.30;;;;;;4955437;28;20090;-83
2021/08/26 06:19:54;;;;;;;13.82;6.70;;;12.70;89.30;;;;;;4941437;28;20050;-83
2021/08/26 06:22:20;;;;;;;13.10;6.15;;;12.80;89.70;;;;;;4953265;28;20369;-83
2021/08/26 06:24:46;;;;;;;12.23;6.53;;;12.80;89.50;;;;;;4952689;28;20031;-83
2021/08/26 06:27:12;;;;;;;9.65;6.72;;;12.80;89.50;;;;;;4961709;28;20027;-82
2021/08/26 06:29:37;;;;;;;10.23;6.22;;;12.90;89.40;;;;;;4942196;28;20036;-84
2021/08/26 06:32:04;;;;;;;13.82;6.63;;;12.90;88.90;;;;;;4952842;28;20188;-83
2021/08/26 06:34:30;;;;;;;11.30;6.68;;;12.90;89.50;;;;;;4938941;29;20228;-83
2021/08/26 06:36:56;;;;;;;10.48;6.40;;;13.00;89.70;;;;;;4939965;29;20118;-83
2021/08/26 06:39:21;;;;;;;12.35;6.47;;;13.00;90.00;;;;;;4938885;29;20444;-82
2021/08/26 06:41:47;;;;;;;11.95;6.88;;;13.10;90.00;;;;;;4957673;28;20035;-83
2021/08/26 06:44:12;;;;;;;11.32;6.50;;;13.10;89.90;;;;;;4957542;28;20452;-83
2021/08/26 06:46:38;;;;;;;10.45;6.45;;;13.10;90.00;;;;;;4938930;29;20515;-82
2021/08/26 06:49:04;;;;;;;12.52;6.68;;;13.20;89.40;;;;;;4938409;28;20074;-83
2021/08/26 06:51:30;;;;;;;11.65;7.18;;;13.20;89.30;;;;;;4958763;28;20023;-83
2021/08/26 06:53:55;;;;;;;9.38;5.75;;;13.20;90.00;;;;;;4939586;28;20029;-83
2021/08/26 06:56:21;;;;;;;12.65;6.20;;;13.30;89.50;;;;;;4932595;29;20035;-83
2021/08/26 06:58:46;;;;;;;10.85;6.15;;;13.30;89.10;;;;;;4938375;29;20043;-82
2021/08/26 07:01:12;;;;;;;9.48;5.88;;;13.40;89.50;;;;;;4937464;28;20500;-83
2021/08/26 07:03:38;;;;;;;10.05;6.15;;;13.40;89.80;;;;;;4932846;28;20027;-82
2021/08/26 07:06:04;;;;;;;11.35;6.43;;;13.40;89.60;;;;;;4936195;28;20418;-82
2021/08/26 07:08:29;;;;;;;9.10;6.30;;;13.40;89.50;;;;;;4937306;28;20114;-82
2021/08/26 07:10:55;;;;;;;10.35;6.05;;;13.50;89.20;;;;;;4954787;28;20093;-82
2021/08/26 07:13:21;;;;;;;9.70;6.53;;;13.50;89.00;;;;;;4968655;28;20114;-82
2021/08/26 07:15:46;;;;;;;9.68;6.50;;;13.50;90.00;;;;;;4937123;28;20034;-82
2021/08/26 07:18:14;;;;;;;10.43;5.78;;;13.50;89.40;;;;;;4935339;29;20035;-82
2021/08/26 07:20:40;;;;;;;14.85;7.45;;;13.50;89.30;;;;;;4935268;28;20074;-82
2021/08/26 07:23:05;;;;;;;12.68;6.70;;;13.60;90.10;;;;;;4938179;28;20063;-82
2021/08/26 07:25:31;;;;;;;11.65;6.70;;;13.60;90.00;;;;;;4939864;28;20497;-82
2021/08/26 07:27:57;;;;;;;10.85;6.63;;;13.60;89.30;;;;;;4937967;28;20031;-82
2021/08/26 07:30:22;;;;;;;13.05;6.25;;;13.60;89.80;;;;;;4956636;28;20082;-83
2021/08/26 07:32:48;;;;;;;9.93;6.32;;;13.60;89.70;;;;;;4954496;28;20024;-83
2021/08/26 07:35:14;;;;;;;10.45;5.97;;;13.70;90.00;;;;;;4935487;28;20042;-82
2021/08/26 07:37:39;;;;;;;11.43;6.22;;;13.70;90.00;;;;;;4962233;28;20030;-82
2021/08/26 07:40:06;;;;;;;11.68;7.18;;;13.70;90.20;;;;;;4960146;28;20027;-82
2021/08/26 07:42:32;;;;;;;13.82;7.93;;;13.70;90.30;;;;;;4945120;28;20030;-82
2021/08/26 07:45:04;;;;;;;15.23;6.80;;;13.70;90.00;;;;;;4953364;28;20051;-82
2021/08/26 07:47:30;;;;;;;12.40;7.00;;;13.70;90.40;;;;;;4950971;28;20457;-82
2021/08/26 07:49:56;;;;;;;13.95;7.25;;;13.80;90.30;;;;;;4959495;28;20376;-83
2021/08/26 07:52:22;;;;;;;11.48;7.03;;;13.80;91.10;;;;;;4932861;29;20023;-83
2021/08/26 07:54:48;;;;;;;11.18;7.55;;;13.80;90.70;;;;;;4956524;28;20038;-83
2021/08/26 07:57:14;;;;;;;14.45;7.53;;;13.90;91.10;;;;;;4959240;28;20031;-83
2021/08/26 07:59:39;;;;;;;13.73;8.23;;;13.80;91.10;;;;;;4956670;28;20034;-82
2021/08/26 08:02:07;;;;;;;15.25;7.65;;;13.80;91.00;;;;;;4940662;28;20476;-82
2021/08/26 08:04:33;;;;;;;14.43;8.03;;;13.80;90.80;;;;;;4941293;29;20024;-84
2021/08/26 08:06:59;;;;;;;14.82;8.00;;;13.80;91.30;;;;;;4949968;28;20027;-83
2021/08/26 08:09:25;;;;;;;13.40;7.45;;;13.90;91.20;;;;;;4937416;28;20547;-83
2021/08/26 08:11:51;;;;;;;12.80;7.18;;;13.90;91.40;;;;;;4935604;29;20035;-83
2021/08/26 08:14:16;;;;;;;12.90;7.60;;;14.00;91.70;;;;;;4932940;28;20496;-83
2021/08/26 08:16:42;;;;;;;15.02;8.10;;;14.00;91.30;;;;;;4958634;28;20035;-83
2021/08/26 08:19:08;;;;;;;15.27;8.10;;;14.00;90.50;;;;;;4943169;28;20395;-83
2021/08/26 08:21:34;;;;;;;17.20;8.20;;;14.00;91.70;;;;;;4930192;28;20031;-83
2021/08/26 08:23:59;;;;;;;16.02;8.95;;;13.90;91.00;;;;;;4941177;28;20130;-83
2021/08/26 08:26:25;;;;;;;14.93;8.48;;;13.90;91.30;;;;;;4928121;28;20464;-83
2021/08/26 08:28:51;;;;;;;16.15;9.07;;;14.00;91.80;;;;;;4928493;28;20098;-83
2021/08/26 08:31:17;;;;;;;18.40;8.70;;;13.90;91.20;;;;;;4944050;28;20332;-83
2021/08/26 08:33:46;;;;;;;15.50;8.70;;;13.90;91.50;;;;;;4946813;28;20027;-83
2021/08/26 08:36:13;;;;;;;16.23;8.98;;;13.90;91.80;;;;;;4943741;28;20531;-83
2021/08/26 08:38:39;;;;;;;15.13;9.82;;;13.90;91.60;;;;;;4927747;29;20373;-83
2021/08/26 08:41:05;;;;;;;16.73;8.82;;;13.90;92.00;;;;;;4931899;29;20035;-83
2021/08/26 08:43:33;;;;;;;16.45;8.75;;;13.90;92.10;;;;;;4932415;29;20020;-83
2021/08/26 08:45:59;;;;;;;14.83;8.43;;;14.00;92.50;;;;;;4941400;28;20024;-83
2021/08/26 08:48:29;;;;;;;17.25;8.98;;;14.00;92.10;;;;;;4931347;28;20482;-83
2021/08/26 08:50:57;;;;;;;14.35;8.82;;;14.00;92.10;;;;;;4945654;28;20019;-83
2021/08/26 08:53:22;;;;;;;;;;;14.00;92.10;;;;;;4947982;28;20406;-84
2021/08/26 08:55:48;;;;;;;15.82;8.57;;;14.10;92.60;;;;;;4949759;28;19911;-83
2021/08/26 08:58:14;;;;;;;13.23;8.65;;;14.00;92.00;;;;;;4946053;28;20115;-84
2021/08/26 09:00:40;;;;;;;16.50;9.93;;;14.00;91.80;;;;;;4930593;28;20044;-83
2021/08/26 09:03:06;;;;;;;19.30;10.70;;;14.00;92.30;;;;;;4948815;28;20027;-83
2021/08/26 09:05:52;;;;;;;20.05;9.95;;;14.00;92.70;;;;;;4946954;28;20027;-83
2021/08/26 09:08:18;;;;;;;16.58;9.48;;;14.00;92.10;;;;;;4945233;28;20042;-82
2021/08/26 09:10:44;;;;;;;17.42;9.88;;;14.00;92.10;;;;;;4949061;28;20035;-83
2021/08/26 09:13:10;;;;;;;17.27;10.02;;;13.90;92.40;;;;;;4944853;28;20038;-83
2021/08/26 09:15:43;;;;;;;18.98;9.55;;;13.90;92.60;;;;;;4950832;28;20456;-84
2021/08/26 09:18:13;;;;;;;18.35;10.35;;;14.00;92.60;;;;;;4947054;28;20042;-84
2021/08/26 09:20:51;;;;;;;17.27;10.23;;;14.00;93.20;;;;;;4931698;28;20075;-84
2021/08/26 09:23:17;;;;;;;17.92;10.77;;;14.00;92.80;;;;;;4951832;28;20053;-84
2021/08/26 09:25:43;;;;;;;18.98;10.98;;;14.00;92.60;;;;;;4936557;29;20027;-84
2021/08/26 09:28:45;;;;;;;20.42;9.98;;;14.00;93.00;;;;;;4955885;28;20034;-84
2021/08/26 09:31:22;;;;;;;20.45;10.30;;;14.00;93.10;;;;;;4907361;29;20553;-84
2021/08/26 09:34:05;;;;;;;19.75;9.57;;;13.90;92.60;;;;;;4960897;28;20043;-84
2021/08/26 09:36:53;;;;;;;15.93;9.82;;;13.90;93.30;;;;;;4952223;28;20110;-84
2021/08/26 09:39:20;;;;;;;;;;;13.90;92.80;;;;;;4950947;28;20077;-83
2021/08/26 09:41:49;;;;;;;18.87;9.50;;;13.90;93.10;;;;;;4962913;28;19916;-84
2021/08/26 09:44:32;;;;;;;20.48;9.52;;;13.90;92.80;;;;;;4953668;28;20078;-84
2021/08/26 09:47:01;;;;;;;17.13;10.88;;;13.90;92.80;;;;;;4953845;28;20063;-84
2021/08/26 09:49:30;;;;;;;17.17;10.30;;;14.00;92.80;;;;;;4958544;28;20150;-84
2021/08/26 09:52:10;;;;;;;18.05;11.20;;;13.90;92.70;;;;;;4937665;29;20110;-84
2021/08/26 09:54:44;;;;;;;18.50;10.25;;;13.90;92.90;;;;;;4940331;28;20054;-83
2021/08/26 09:57:28;;;;;;;16.50;10.00;;;13.90;92.50;;;;;;4952200;28;20031;-83
2021/08/26 09:59:59;;;;;;;17.88;9.85;;;13.90;92.80;;;;;;4942889;29;20126;-84
2021/08/26 10:02:27;;;;;;;17.13;9.48;;;13.90;92.70;;;;;;4936918;28;20031;-84
2021/08/26 10:04:54;;;;;;;17.20;9.68;;;13.90;92.90;;;;;;4944899;28;20038;-84
2021/08/26 10:07:20;;;;;;;15.77;9.93;;;13.90;92.90;;;;;;4953598;28;20563;-84
2021/08/26 10:09:49;;;;;;;17.70;9.85;;;13.90;93.20;;;;;;4938818;29;20074;-84
2021/08/26 10:12:16;;;;;;;17.67;9.18;;;13.90;93.30;;;;;;4955245;28;20028;-84
2021/08/26 10:14:47;;;;;;;15.90;10.13;;;13.90;93.40;;;;;;4943041;28;20042;-84
2021/08/26 10:17:13;;;;;;;15.80;10.13;;;13.90;93.40;;;;;;4937051;29;20050;-84
2021/08/26 10:19:40;;;;;;;15.93;9.30;;;13.90;93.30;;;;;;4937062;29;20399;-84
2021/08/26 10:22:07;;;;;;;17.33;11.10;;;13.80;93.40;;;;;;4946276;28;20028;-84
2021/08/26 10:24:33;;;;;;;16.67;10.27;;;13.90;93.50;;;;;;4945021;28;20032;-84
2021/08/26 10:27:27;;;;;;;18.05;10.57;;;13.90;93.50;;;;;;4949489;28;20038;-85
2021/08/26 10:29:53;;;;;;;18.67;10.98;;;13.90;93.30;;;;;;4950006;28;20090;-85
2021/08/26 10:32:23;;;;;;;18.27;9.48;;;13.90;93.80;;;;;;4934843;28;20062;-85
2021/08/26 10:35:14;;;;;;;15.60;9.68;;;14.00;93.80;;;;;;4951998;29;20492;-84
2021/08/26 10:37:53;;;;;;;18.65;10.70;;;13.90;93.30;;;;;;4933417;29;20496;-85
2021/08/26 10:40:37;;;;;;;16.67;10.35;;;13.90;93.60;;;;;;4944181;28;20071;-84
2021/08/26 10:43:04;;;;;;;18.70;10.65;;;13.90;93.60;;;;;;4955558;28;20031;-85
2021/08/26 10:45:50;;;;;;;17.63;10.50;;;13.90;94.00;;;;;;4928830;28;20396;-85
2021/08/26 10:48:18;;;;;;;17.15;10.40;;;13.90;93.90;;;;;;4951582;28;20024;-85
2021/08/26 10:50:45;;;;;;;;;;;13.90;93.50;;;;;;4937182;28;20121;-85
2021/08/26 10:53:28;;;;;;;16.10;9.70;;;13.90;94.10;;;;;;4949966;28;19953;-85
2021/08/26 10:55:56;;;;;;;18.67;10.73;;;13.90;93.60;;;;;;4944863;28;20537;-85
2021/08/26 10:58:22;;;;;;;18.58;10.13;;;13.90;93.50;;;;;;4933592;29;20023;-86
2021/08/26 11:00:55;;;;;;;16.02;9.60;;;13.80;93.60;;;;;;4951073;28;20054;-85
2021/08/26 11:03:42;;;;;;;19.52;10.52;;;13.80;93.40;;;;;;4955652;28;20496;-85
2021/08/26 11:06:17;;;;;;;15.63;10.48;;;13.70;93.60;;;;;;4935496;28;20050;-86
2021/08/26 11:08:45;;;;;;;16.92;10.48;;;13.60;93.40;;;;;;4941831;29;20023;-84
2021/08/26 11:14:07;;;;;;;17.42;10.30;;;13.60;93.80;;;;;;4944917;28;20038;-84
2021/08/26 11:16:37;;;;;;;18.85;10.18;;;13.60;93.70;;;;;;4918790;29;20519;-84
2021/08/26 11:19:05;;;;;;;18.83;10.48;;;13.70;94.10;;;;;;4928354;29;20090;-84
2021/08/26 11:24:19;;;;;;;19.05;10.57;;;13.70;93.90;;;;;;4955433;28;20066;-84
2021/08/26 11:26:52;;;;;;;17.08;10.52;;;13.70;94.20;;;;;;4944520;28;20035;-84
2021/08/26 11:29:20;;;;;;;16.80;11.73;;;13.60;94.00;;;;;;4950009;28;20030;-84
2021/08/26 11:31:56;;;;;;;20.20;10.57;;;13.70;94.40;;;;;;4956353;28;20031;-85
2021/08/26 11:34:42;;;;;;;17.50;10.52;;;13.70;94.20;;;;;;4949831;28;20031;-84
2021/08/26 11:37:08;;;;;;;16.20;10.48;;;13.70;94.50;;;;;;4937296;29;20031;-84
2021/08/26 11:39:53;;;;;;;18.42;10.98;;;13.70;94.10;;;;;;4956954;28;20039;-84
2021/08/26 11:42:32;;;;;;;19.83;10.77;;;13.80;94.60;;;;;;4949301;29;20110;-84
2021/08/26 11:45:13;;;;;;;19.27;10.95;;;13.80;94.30;;;;;;4931100;29;20039;-84
2021/08/26 11:47:42;;;;;;;16.40;10.55;;;13.80;94.60;;;;;;4943813;29;20027;-84
2021/08/26 11:50:13;;;;;;;;;;;13.80;94.50;;;;;;4935532;28;20028;-84
2021/08/26 11:52:39;;;;;;;20.67;11.40;;;13.80;94.00;;;;;;4947421;28;20367;-84
2021/08/26 11:55:05;;;;;;;20.73;12.50;;;13.90;94.40;;;;;;4936183;28;20118;-85
2021/08/26 11:57:31;;;;;;;22.55;12.60;;;13.90;94.60;;;;;;4940528;28;20518;-84
2021/08/26 12:00:15;;;;;;;20.50;12.15;;;13.90;94.60;;;;;;4959061;28;20114;-84
2021/08/26 12:02:42;;;;;;;18.98;11.35;;;14.00;94.60;;;;;;4948282;28;20114;-85
2021/08/26 12:05:13;;;;;;;18.60;11.23;;;14.00;93.70;;;;;;4934785;28;20102;-84
2021/08/26 12:07:42;;;;;;;19.40;11.98;;;14.00;94.30;;;;;;4964198;28;20032;-86
2021/08/26 12:10:16;;;;;;;21.00;12.70;;;14.00;94.10;;;;;;4953363;29;20106;-84
2021/08/26 12:12:56;;;;;;;15.43;11.25;;;14.00;93.70;;;;;;4957983;28;20153;-84
2021/08/26 12:15:35;;;;;;;19.25;11.30;;;14.00;93.90;;;;;;4936446;29;20508;-82
2021/08/26 12:18:09;;;;;;;19.13;12.35;;;14.00;93.80;;;;;;4950220;28;20035;-83
2021/08/26 12:20:46;;;;;;;18.02;12.00;;;14.00;93.70;;;;;;4953985;28;20356;-84
2021/08/26 12:23:22;;;;;;;19.52;11.85;;;14.00;94.00;;;;;;4953793;28;20618;-82
2021/08/26 12:26:10;;;;;;;19.13;12.60;;;14.10;94.30;;;;;;4954221;29;20500;-83
2021/08/26 12:28:42;;;;;;;;;;;14.20;94.20;;;;;;4950931;28;20031;-83
2021/08/26 12:31:13;;;;;;;21.52;11.77;;;14.30;94.40;;;;;;4939051;28;19925;-82
2021/08/26 12:34:05;;;;;;;19.55;12.02;;;14.20;93.40;;;;;;4956446;28;20115;-83
2021/08/26 12:36:34;;;;;;;18.15;12.02;;;14.20;93.70;;;;;;4969828;28;20484;-83
2021/08/26 12:39:01;;;;;;;17.70;11.35;;;14.30;93.60;;;;;;4950675;28;20034;-83
2021/08/26 12:41:27;;;;;;;20.63;12.00;;;14.30;93.50;;;;;;4938996;28;20070;-83
2021/08/26 12:43:57;;;;;;;19.67;11.77;;;14.30;93.80;;;;;;4937793;29;20063;-83
2021/08/26 12:46:26;;;;;;;19.90;11.80;;;14.30;93.80;;;;;;4935815;29;20089;-83
2021/08/26 12:49:08;;;;;;;18.92;12.25;;;14.40;93.60;;;;;;4962989;28;20031;-83
2021/08/26 12:51:51;;;;;;;19.35;11.65;;;14.40;92.80;;;;;;4969750;28;20030;-83
2021/08/26 12:54:17;;;;;;;18.55;12.25;;;14.40;93.40;;;;;;4977170;28;20023;-83
2021/08/26 12:56:55;;;;;;;18.00;11.68;;;14.50;93.50;;;;;;4957939;28;20494;-83
2021/08/26 12:59:36;;;;;;;18.20;11.60;;;14.50;93.90;;;;;;4931730;28;20122;-84